sensor_id;sensor_type;location;lat;lon;timestamp;pressure;altitude;pressure_sealevel;temperature;humidity
62976;BME280;49071;0.000;0.000;2023-06-26T04:12:37;100875.59;;;21.96;65.22
62976;BME280;49071;0.000;0.000;2023-06-26T04:15:37;100870.16;;;22.12;64.42
62976;BME280;49071;0.000;0.000;2023-06-26T04:18:38;100871.28;;;22.22;64.10
62976;BME280;49071;0.000;0.000;2023-06-26T04:21:38;100870.94;;;22.14;64.61
62976;BME280;49071;0.000;0.000;2023-06-26T04:24:38;100866.81;;;22.23;64.17
62976;BME280;49071;0.000;0.000;2023-06-26T04:27:39;100870.44;;;22.22;64.50
62976;BME280;49071;0.000;0.000;2023-06-26T04:30:39;100867.47;;;22.26;63.62
62976;BME280;49071;0.000;0.000;2023-06-26T04:33:39;100869.44;;;22.37;62.93
62976;BME280;49071;0.000;0.000;2023-06-26T04:36:39;100877.94;;;22.29;63.51
62976;BME280;49071;0.000;0.000;2023-06-26T04:39:40;100876.25;;;22.28;63.35
62976;BME280;49071;0.000;0.000;2023-06-26T04:42:40;100870.91;;;22.28;63.60
62976;BME280;49071;0.000;0.000;2023-06-26T04:45:40;100871.66;;;22.30;63.42
62976;BME280;49071;0.000;0.000;2023-06-26T04:48:40;100867.66;;;22.23;63.72
62976;BME280;49071;0.000;0.000;2023-06-26T04:51:40;100872.75;;;22.40;63.27
62976;BME280;49071;0.000;0.000;2023-06-26T04:54:41;100867.03;;;22.46;62.98
62976;BME280;49071;0.000;0.000;2023-06-26T04:57:41;100863.16;;;22.38;63.44
62976;BME280;49071;0.000;0.000;2023-06-26T05:00:41;100861.75;;;22.32;63.84
62976;BME280;49071;0.000;0.000;2023-06-26T05:03:42;100865.38;;;22.31;64.17
62976;BME280;49071;0.000;0.000;2023-06-26T05:06:43;100862.00;;;22.42;63.68
62976;BME280;49071;0.000;0.000;2023-06-26T05:09:43;100857.31;;;22.45;63.36
62976;BME280;49071;0.000;0.000;2023-06-26T05:12:43;100862.09;;;22.40;63.86
62976;BME280;49071;0.000;0.000;2023-06-26T05:15:43;100854.09;;;22.40;64.18
62976;BME280;49071;0.000;0.000;2023-06-26T05:18:44;100857.66;;;22.54;63.40
62976;BME280;49071;0.000;0.000;2023-06-26T05:21:44;100859.25;;;22.43;64.18
62976;BME280;49071;0.000;0.000;2023-06-26T05:24:45;100849.31;;;22.45;64.09
62976;BME280;49071;0.000;0.000;2023-06-26T05:27:46;100856.31;;;22.61;63.37
62976;BME280;49071;0.000;0.000;2023-06-26T05:30:47;100851.06;;;22.59;63.58
62976;BME280;49071;0.000;0.000;2023-06-26T05:33:47;100850.97;;;22.61;63.85
62976;BME280;49071;0.000;0.000;2023-06-26T05:36:49;100851.53;;;22.66;63.87
62976;BME280;49071;0.000;0.000;2023-06-26T05:39:50;100841.94;;;22.76;63.22
62976;BME280;49071;0.000;0.000;2023-06-26T05:42:50;100839.28;;;22.76;62.89
62976;BME280;49071;0.000;0.000;2023-06-26T05:45:51;100842.81;;;22.77;62.78
62976;BME280;49071;0.000;0.000;2023-06-26T05:48:51;100841.94;;;22.76;62.43
62976;BME280;49071;0.000;0.000;2023-06-26T05:51:51;100841.34;;;22.85;62.41
62976;BME280;49071;0.000;0.000;2023-06-26T05:54:52;100839.56;;;22.86;62.09
62976;BME280;49071;0.000;0.000;2023-06-26T05:57:52;100836.97;;;22.84;61.73
62976;BME280;49071;0.000;0.000;2023-06-26T06:00:52;100838.94;;;22.95;61.93
62976;BME280;49071;0.000;0.000;2023-06-26T06:03:52;100839.19;;;23.05;61.61
62976;BME280;49071;0.000;0.000;2023-06-26T06:06:53;100838.94;;;23.08;61.39
62976;BME280;49071;0.000;0.000;2023-06-26T06:09:53;100839.50;;;23.13;61.33
62976;BME280;49071;0.000;0.000;2023-06-26T06:12:53;100833.81;;;23.17;61.00
62976;BME280;49071;0.000;0.000;2023-06-26T06:15:54;100832.56;;;23.23;60.89
62976;BME280;49071;0.000;0.000;2023-06-26T06:18:55;100834.91;;;23.27;60.65
62976;BME280;49071;0.000;0.000;2023-06-26T06:21:55;100820.50;;;23.30;60.20
62976;BME280;49071;0.000;0.000;2023-06-26T06:24:55;100827.34;;;23.34;60.11
62976;BME280;49071;0.000;0.000;2023-06-26T06:27:55;100829.78;;;23.37;59.85
62976;BME280;49071;0.000;0.000;2023-06-26T06:30:56;100825.19;;;23.39;59.90
62976;BME280;49071;0.000;0.000;2023-06-26T06:33:56;100816.13;;;23.42;60.06
62976;BME280;49071;0.000;0.000;2023-06-26T06:36:56;100813.31;;;23.43;59.82
62976;BME280;49071;0.000;0.000;2023-06-26T06:39:56;100814.06;;;23.45;60.38
62976;BME280;49071;0.000;0.000;2023-06-26T06:42:56;100815.69;;;23.48;60.77
62976;BME280;49071;0.000;0.000;2023-06-26T06:45:57;100815.56;;;23.49;60.14
62976;BME280;49071;0.000;0.000;2023-06-26T06:48:57;100815.34;;;23.52;60.06
62976;BME280;49071;0.000;0.000;2023-06-26T06:51:57;100806.28;;;23.55;60.05
62976;BME280;49071;0.000;0.000;2023-06-26T06:54:57;100807.88;;;23.57;59.65
62976;BME280;49071;0.000;0.000;2023-06-26T06:58:05;100805.19;;;23.57;59.79
62976;BME280;49071;0.000;0.000;2023-06-26T07:01:05;100803.25;;;23.60;59.78
62976;BME280;49071;0.000;0.000;2023-06-26T07:04:05;100794.31;;;23.61;59.71
62976;BME280;49071;0.000;0.000;2023-06-26T07:07:05;100798.72;;;23.62;59.67
62976;BME280;49071;0.000;0.000;2023-06-26T07:10:06;100800.31;;;23.64;59.86
62976;BME280;49071;0.000;0.000;2023-06-26T07:13:07;100805.63;;;23.64;59.70
62976;BME280;49071;0.000;0.000;2023-06-26T07:16:08;100804.69;;;23.65;59.93
62976;BME280;49071;0.000;0.000;2023-06-26T07:19:11;100800.19;;;23.66;60.04
62976;BME280;49071;0.000;0.000;2023-06-26T07:22:11;100799.22;;;23.67;59.92
62976;BME280;49071;0.000;0.000;2023-06-26T07:25:11;100801.81;;;23.68;60.20
62976;BME280;49071;0.000;0.000;2023-06-26T07:28:11;100799.97;;;23.69;60.00
62976;BME280;49071;0.000;0.000;2023-06-26T07:31:12;100805.22;;;23.70;59.47
62976;BME280;49071;0.000;0.000;2023-06-26T07:34:12;100790.03;;;23.71;59.35
62976;BME280;49071;0.000;0.000;2023-06-26T07:37:12;100795.25;;;23.72;59.25
62976;BME280;49071;0.000;0.000;2023-06-26T07:40:12;100793.44;;;23.73;59.27
62976;BME280;49071;0.000;0.000;2023-06-26T07:43:12;100788.09;;;23.73;59.85
62976;BME280;49071;0.000;0.000;2023-06-26T07:46:13;100782.63;;;23.74;59.74
62976;BME280;49071;0.000;0.000;2023-06-26T07:49:13;100787.88;;;23.76;59.82
62976;BME280;49071;0.000;0.000;2023-06-26T07:52:14;100783.41;;;23.76;59.90
62976;BME280;49071;0.000;0.000;2023-06-26T07:55:15;100780.72;;;23.76;59.88
62976;BME280;49071;0.000;0.000;2023-06-26T07:58:15;100781.56;;;23.77;59.62
62976;BME280;49071;0.000;0.000;2023-06-26T08:01:15;100778.66;;;23.80;59.62
62976;BME280;49071;0.000;0.000;2023-06-26T08:04:16;100773.44;;;23.78;59.65
62976;BME280;49071;0.000;0.000;2023-06-26T08:07:17;100770.53;;;23.81;59.74
62976;BME280;49071;0.000;0.000;2023-06-26T08:10:18;100777.59;;;23.82;59.89
62976;BME280;49071;0.000;0.000;2023-06-26T08:13:19;100779.31;;;23.83;59.43
62976;BME280;49071;0.000;0.000;2023-06-26T08:16:19;100776.66;;;23.83;59.43
62976;BME280;49071;0.000;0.000;2023-06-26T08:19:19;100777.50;;;23.84;59.35
62976;BME280;49071;0.000;0.000;2023-06-26T08:22:19;100770.31;;;23.84;59.25
62976;BME280;49071;0.000;0.000;2023-06-26T08:25:20;100771.19;;;23.85;59.12
62976;BME280;49071;0.000;0.000;2023-06-26T08:28:20;100769.34;;;23.86;59.03
62976;BME280;49071;0.000;0.000;2023-06-26T08:31:20;100764.88;;;23.86;58.70
62976;BME280;49071;0.000;0.000;2023-06-26T08:34:20;100759.41;;;23.88;58.81
62976;BME280;49071;0.000;0.000;2023-06-26T08:37:21;100754.91;;;23.88;58.71
62976;BME280;49071;0.000;0.000;2023-06-26T08:40:21;100759.28;;;23.89;58.57
62976;BME280;49071;0.000;0.000;2023-06-26T08:43:21;100753.09;;;23.89;58.69
62976;BME280;49071;0.000;0.000;2023-06-26T08:46:22;100753.00;;;23.90;58.65
62976;BME280;49071;0.000;0.000;2023-06-26T08:49:40;100753.00;;;23.90;58.64
62976;BME280;49071;0.000;0.000;2023-06-26T08:52:46;100749.34;;;23.91;58.41
62976;BME280;49071;0.000;0.000;2023-06-26T08:55:52;100749.34;;;23.91;58.46
62976;BME280;49071;0.000;0.000;2023-06-26T08:58:53;100744.84;;;23.92;58.68
62976;BME280;49071;0.000;0.000;2023-06-26T09:01:53;100745.72;;;23.92;58.52
62976;BME280;49071;0.000;0.000;2023-06-26T09:04:53;100735.88;;;23.93;58.66
62976;BME280;49071;0.000;0.000;2023-06-26T09:07:54;100736.72;;;23.93;58.79
62976;BME280;49071;0.000;0.000;2023-06-26T09:10:55;100726.88;;;23.94;58.74
62976;BME280;49071;0.000;0.000;2023-06-26T09:13:55;100727.72;;;23.94;58.72
62976;BME280;49071;0.000;0.000;2023-06-26T09:16:56;100726.75;;;23.95;58.78
62976;BME280;49071;0.000;0.000;2023-06-26T09:19:56;100726.75;;;23.95;58.69
62976;BME280;49071;0.000;0.000;2023-06-26T09:22:56;100724.94;;;23.96;58.85
62976;BME280;49071;0.000;0.000;2023-06-26T09:25:56;100724.00;;;23.97;59.06
62976;BME280;49071;0.000;0.000;2023-06-26T09:28:57;100720.47;;;23.96;58.88
62976;BME280;49071;0.000;0.000;2023-06-26T09:31:57;100722.19;;;23.97;59.18
62976;BME280;49071;0.000;0.000;2023-06-26T09:34:59;100713.19;;;23.98;59.24
62976;BME280;49071;0.000;0.000;2023-06-26T09:38:01;100707.84;;;23.98;59.19
62976;BME280;49071;0.000;0.000;2023-06-26T09:41:02;100708.69;;;23.99;59.18
62976;BME280;49071;0.000;0.000;2023-06-26T09:44:03;100712.22;;;23.99;59.13
62976;BME280;49071;0.000;0.000;2023-06-26T09:47:04;100706.88;;;23.99;59.05
62976;BME280;49071;0.000;0.000;2023-06-26T09:50:04;100708.56;;;24.00;59.13
62976;BME280;49071;0.000;0.000;2023-06-26T09:53:08;100701.41;;;24.01;58.86
62976;BME280;49071;0.000;0.000;2023-06-26T09:56:16;100707.59;;;24.01;59.08
62976;BME280;49071;0.000;0.000;2023-06-26T09:59:17;100700.56;;;24.00;58.89
62976;BME280;49071;0.000;0.000;2023-06-26T10:02:17;100698.59;;;24.02;58.72
62976;BME280;49071;0.000;0.000;2023-06-26T10:05:18;100695.94;;;24.02;58.80
62976;BME280;49071;0.000;0.000;2023-06-26T10:08:19;100690.59;;;24.02;59.13
62976;BME280;49071;0.000;0.000;2023-06-26T10:11:20;100687.91;;;24.02;58.79
62976;BME280;49071;0.000;0.000;2023-06-26T10:14:21;100676.28;;;24.03;58.54
62976;BME280;49071;0.000;0.000;2023-06-26T10:17:22;100668.25;;;24.03;58.83
62976;BME280;49071;0.000;0.000;2023-06-26T10:20:24;100672.50;;;24.06;58.93
62976;BME280;49071;0.000;0.000;2023-06-26T10:23:25;100668.16;;;24.05;58.63
62976;BME280;49071;0.000;0.000;2023-06-26T10:26:27;100669.00;;;24.05;58.62
62976;BME280;49071;0.000;0.000;2023-06-26T10:29:28;100662.66;;;24.06;58.27
62976;BME280;49071;0.000;0.000;2023-06-26T10:32:29;100658.06;;;24.08;58.07
62976;BME280;49071;0.000;0.000;2023-06-26T10:35:30;100650.16;;;24.07;58.17
62976;BME280;49071;0.000;0.000;2023-06-26T10:38:47;100651.00;;;24.07;58.43
62976;BME280;49071;0.000;0.000;2023-06-26T10:41:48;100637.63;;;24.07;58.43
62976;BME280;49071;0.000;0.000;2023-06-26T10:44:48;100634.84;;;24.09;58.48
62976;BME280;49071;0.000;0.000;2023-06-26T10:47:48;100633.03;;;24.09;58.67
62976;BME280;49071;0.000;0.000;2023-06-26T10:50:51;100636.53;;;24.10;58.50
62976;BME280;49071;0.000;0.000;2023-06-26T10:53:56;100643.72;;;24.09;58.44
62976;BME280;49071;0.000;0.000;2023-06-26T10:56:57;100634.75;;;24.10;58.27
62976;BME280;49071;0.000;0.000;2023-06-26T11:00:31;100638.28;;;24.11;58.57
62976;BME280;49071;0.000;0.000;2023-06-26T11:03:24;100624.06;;;24.10;58.29
62976;BME280;49071;0.000;0.000;2023-06-26T11:06:24;100629.28;;;24.12;58.45
62976;BME280;49071;0.000;0.000;2023-06-26T11:09:25;100625.63;;;24.13;58.24
62976;BME280;49071;0.000;0.000;2023-06-26T11:15:37;100606.91;;;24.13;58.23
62976;BME280;49071;0.000;0.000;2023-06-26T11:18:38;100610.44;;;24.14;58.28
62976;BME280;49071;0.000;0.000;2023-06-26T11:21:38;100609.47;;;24.15;58.23
62976;BME280;49071;0.000;0.000;2023-06-26T11:24:38;100601.44;;;24.15;58.34
62976;BME280;49071;0.000;0.000;2023-06-26T11:27:42;100605.81;;;24.16;58.20
62976;BME280;49071;0.000;0.000;2023-06-26T11:30:42;100607.66;;;24.15;58.17
62976;BME280;49071;0.000;0.000;2023-06-26T11:33:45;100596.81;;;24.17;58.39
62976;BME280;49071;0.000;0.000;2023-06-26T11:36:45;100597.81;;;24.16;58.25
62976;BME280;49071;0.000;0.000;2023-06-26T11:39:47;100590.53;;;24.18;58.24
62976;BME280;49071;0.000;0.000;2023-06-26T11:42:48;100587.88;;;24.18;58.56
62976;BME280;49071;0.000;0.000;2023-06-26T11:45:49;100585.19;;;24.18;58.50
62976;BME280;49071;0.000;0.000;2023-06-26T11:48:49;100580.69;;;24.18;58.28
62976;BME280;49071;0.000;0.000;2023-06-26T11:51:49;100578.03;;;24.18;58.21
62976;BME280;49071;0.000;0.000;2023-06-26T11:54:50;100567.19;;;24.20;58.24
62976;BME280;49071;0.000;0.000;2023-06-26T11:57:52;100576.06;;;24.20;58.14
62976;BME280;49071;0.000;0.000;2023-06-26T12:00:52;100573.41;;;24.20;58.29
62976;BME280;49071;0.000;0.000;2023-06-26T12:03:58;100566.34;;;24.19;58.21
62976;BME280;49071;0.000;0.000;2023-06-26T12:06:58;100561.84;;;24.20;58.19
62976;BME280;49071;0.000;0.000;2023-06-26T12:09:58;100558.19;;;24.21;58.34
62976;BME280;49071;0.000;0.000;2023-06-26T12:12:59;100557.22;;;24.22;58.22
62976;BME280;49071;0.000;0.000;2023-06-26T12:16:01;100547.38;;;24.22;58.28
62976;BME280;49071;0.000;0.000;2023-06-26T12:19:05;100540.22;;;24.23;58.32
62976;BME280;49071;0.000;0.000;2023-06-26T12:22:05;100526.00;;;24.22;58.21
62976;BME280;49071;0.000;0.000;2023-06-26T12:25:07;100536.56;;;24.24;58.22
62976;BME280;49071;0.000;0.000;2023-06-26T12:28:15;100531.22;;;24.24;58.29
62976;BME280;49071;0.000;0.000;2023-06-26T12:31:15;100525.88;;;24.24;58.16
62976;BME280;49071;0.000;0.000;2023-06-26T12:34:17;100525.75;;;24.25;58.07
62976;BME280;49071;0.000;0.000;2023-06-26T12:37:18;100519.56;;;24.25;58.37
62976;BME280;49071;0.000;0.000;2023-06-26T12:40:18;100522.25;;;24.25;58.50
62976;BME280;49071;0.000;0.000;2023-06-26T12:43:22;100518.47;;;24.27;58.24
62976;BME280;49071;0.000;0.000;2023-06-26T12:46:43;100508.75;;;24.26;58.49
62976;BME280;49071;0.000;0.000;2023-06-26T12:49:43;100493.56;;;24.27;58.39
62976;BME280;49071;0.000;0.000;2023-06-26T12:52:44;100494.41;;;24.27;58.76
62976;BME280;49071;0.000;0.000;2023-06-26T12:55:44;100481.03;;;24.27;58.62
62976;BME280;49071;0.000;0.000;2023-06-26T12:58:44;100489.06;;;24.27;58.53
62976;BME280;49071;0.000;0.000;2023-06-26T13:01:44;100479.22;;;24.28;58.18
62976;BME280;49071;0.000;0.000;2023-06-26T13:04:45;100465.56;;;24.31;58.07
62976;BME280;49071;0.000;0.000;2023-06-26T13:07:45;100458.34;;;24.33;58.03
62976;BME280;49071;0.000;0.000;2023-06-26T13:10:45;100460.88;;;24.34;58.33
62976;BME280;49071;0.000;0.000;2023-06-26T13:13:45;100455.41;;;24.36;58.07
62976;BME280;49071;0.000;0.000;2023-06-26T13:16:46;100448.09;;;24.38;58.22
62976;BME280;49071;0.000;0.000;2023-06-26T13:19:46;100448.84;;;24.40;58.05
62976;BME280;49071;0.000;0.000;2023-06-26T13:22:46;100439.00;;;24.41;58.19
62976;BME280;49071;0.000;0.000;2023-06-26T13:25:47;100441.53;;;24.42;58.26
62976;BME280;49071;0.000;0.000;2023-06-26T13:28:47;100441.28;;;24.45;58.19
62976;BME280;49071;0.000;0.000;2023-06-26T13:31:48;100429.63;;;24.46;58.33
62976;BME280;49071;0.000;0.000;2023-06-26T13:34:48;100429.63;;;24.46;58.18
62976;BME280;49071;0.000;0.000;2023-06-26T13:37:48;100420.50;;;24.49;58.35
62976;BME280;49071;0.000;0.000;2023-06-26T13:40:48;100425.72;;;24.50;58.27
62976;BME280;49071;0.000;0.000;2023-06-26T13:43:49;100422.91;;;24.52;58.39
62976;BME280;49071;0.000;0.000;2023-06-26T13:46:49;100421.97;;;24.53;58.53
62976;BME280;49071;0.000;0.000;2023-06-26T13:49:49;100416.50;;;24.54;58.46
62976;BME280;49071;0.000;0.000;2023-06-26T13:52:49;100410.03;;;24.57;58.44
62976;BME280;49071;0.000;0.000;2023-06-26T13:55:49;100399.09;;;24.60;58.50
62976;BME280;49071;0.000;0.000;2023-06-26T13:58:50;100399.94;;;24.60;58.34
62976;BME280;49071;0.000;0.000;2023-06-26T14:01:50;100386.44;;;24.62;58.29
62976;BME280;49071;0.000;0.000;2023-06-26T14:04:51;100382.06;;;24.61;58.31
62976;BME280;49071;0.000;0.000;2023-06-26T14:07:51;100372.34;;;24.60;58.63
62976;BME280;49071;0.000;0.000;2023-06-26T14:10:51;100371.47;;;24.59;58.73
62976;BME280;49071;0.000;0.000;2023-06-26T14:13:52;100374.13;;;24.59;58.42
62976;BME280;49071;0.000;0.000;2023-06-26T14:16:52;100360.75;;;24.59;58.29
62976;BME280;49071;0.000;0.000;2023-06-26T14:19:52;100348.25;;;24.60;58.13
62976;BME280;49071;0.000;0.000;2023-06-26T14:22:53;100340.22;;;24.60;58.16
62976;BME280;49071;0.000;0.000;2023-06-26T14:25:53;100333.06;;;24.60;58.00
62976;BME280;49071;0.000;0.000;2023-06-26T14:28:53;100327.69;;;24.60;58.03
62976;BME280;49071;0.000;0.000;2023-06-26T14:31:53;100325.88;;;24.61;58.07
62976;BME280;49071;0.000;0.000;2023-06-26T14:34:54;100337.44;;;24.61;57.98
62976;BME280;49071;0.000;0.000;2023-06-26T14:37:54;100328.41;;;24.62;57.90
62976;BME280;49071;0.000;0.000;2023-06-26T14:40:54;100338.28;;;24.62;58.06
62976;BME280;49071;0.000;0.000;2023-06-26T14:43:54;100339.13;;;24.62;58.13
62976;BME280;49071;0.000;0.000;2023-06-26T14:46:54;100331.94;;;24.63;58.18
62976;BME280;49071;0.000;0.000;2023-06-26T14:49:55;100325.75;;;24.62;58.13
62976;BME280;49071;0.000;0.000;2023-06-26T14:52:55;100324.75;;;24.63;57.70
62976;BME280;49071;0.000;0.000;2023-06-26T14:55:56;100329.13;;;24.64;57.79
62976;BME280;49071;0.000;0.000;2023-06-26T14:58:56;100334.47;;;24.64;57.83
62976;BME280;49071;0.000;0.000;2023-06-26T15:01:56;100324.75;;;24.63;58.10
62976;BME280;49071;0.000;0.000;2023-06-26T15:04:56;100316.72;;;24.63;57.87
62976;BME280;49071;0.000;0.000;2023-06-26T15:07:56;100305.06;;;24.64;57.75
62976;BME280;49071;0.000;0.000;2023-06-26T15:10:56;100302.38;;;24.64;58.02
62976;BME280;49071;0.000;0.000;2023-06-26T15:13:57;100304.19;;;24.64;57.91
62976;BME280;49071;0.000;0.000;2023-06-26T15:16:57;100297.03;;;24.64;57.89
62976;BME280;49071;0.000;0.000;2023-06-26T15:19:58;100292.38;;;24.66;57.82
62976;BME280;49071;0.000;0.000;2023-06-26T15:22:58;100288.00;;;24.65;57.87
62976;BME280;49071;0.000;0.000;2023-06-26T15:25:59;100274.63;;;24.65;57.84
62976;BME280;49071;0.000;0.000;2023-06-26T15:28:59;100269.28;;;24.65;57.64
62976;BME280;49071;0.000;0.000;2023-06-26T15:31:59;100270.97;;;24.66;57.53
62976;BME280;49071;0.000;0.000;2023-06-26T15:34:59;100266.50;;;24.67;57.48
62976;BME280;49071;0.000;0.000;2023-06-26T15:37:59;100277.22;;;24.67;57.68
62976;BME280;49071;0.000;0.000;2023-06-26T15:41:00;100277.22;;;24.67;57.54
62976;BME280;49071;0.000;0.000;2023-06-26T15:44:00;100290.59;;;24.67;57.67
62976;BME280;49071;0.000;0.000;2023-06-26T15:47:00;100400.28;;;24.67;57.90
62976;BME280;49071;0.000;0.000;2023-06-26T15:50:00;100427.03;;;24.67;57.85
62976;BME280;49071;0.000;0.000;2023-06-26T15:53:02;100480.44;;;24.69;57.75
62976;BME280;49071;0.000;0.000;2023-06-26T15:56:06;100525.91;;;24.69;57.79
62976;BME280;49071;0.000;0.000;2023-06-26T15:59:07;100549.88;;;24.70;57.56
62976;BME280;49071;0.000;0.000;2023-06-26T16:02:07;100556.06;;;24.71;58.06
62976;BME280;49071;0.000;0.000;2023-06-26T16:05:08;100560.56;;;24.70;57.45
62976;BME280;49071;0.000;0.000;2023-06-26T16:08:08;100565.06;;;24.70;58.24
62976;BME280;49071;0.000;0.000;2023-06-26T16:11:08;100552.81;;;24.67;59.25
62976;BME280;49071;0.000;0.000;2023-06-26T16:14:09;100549.50;;;24.63;59.77
62976;BME280;49071;0.000;0.000;2023-06-26T16:17:09;100554.00;;;24.63;59.73
62976;BME280;49071;0.000;0.000;2023-06-26T16:20:09;100564.72;;;24.63;59.93
62976;BME280;49071;0.000;0.000;2023-06-26T16:23:10;100570.91;;;24.63;59.53
62976;BME280;49071;0.000;0.000;2023-06-26T16:26:10;100564.56;;;24.64;59.88
62976;BME280;49071;0.000;0.000;2023-06-26T16:29:10;100564.84;;;24.61;59.80
62976;BME280;49071;0.000;0.000;2023-06-26T16:32:10;100549.75;;;24.60;60.34
62976;BME280;49071;0.000;0.000;2023-06-26T16:35:10;100549.50;;;24.63;59.91
62976;BME280;49071;0.000;0.000;2023-06-26T16:38:11;100546.09;;;24.61;60.49
62976;BME280;49071;0.000;0.000;2023-06-26T16:41:11;100545.97;;;24.63;60.63
62976;BME280;49071;0.000;0.000;2023-06-26T16:44:12;100552.44;;;24.60;60.48
62976;BME280;49071;0.000;0.000;2023-06-26T16:47:12;100573.84;;;24.60;60.67
62976;BME280;49071;0.000;0.000;2023-06-26T16:50:16;100572.00;;;24.61;60.81
62976;BME280;49071;0.000;0.000;2023-06-26T16:53:16;100577.59;;;24.58;61.21
62976;BME280;49071;0.000;0.000;2023-06-26T16:56:16;100557.88;;;24.59;60.17
62976;BME280;49071;0.000;0.000;2023-06-26T16:59:17;100554.25;;;24.60;59.99
62976;BME280;49071;0.000;0.000;2023-06-26T17:02:17;100537.31;;;24.59;60.65
62976;BME280;49071;0.000;0.000;2023-06-26T17:05:17;100536.25;;;24.62;59.94
62976;BME280;49071;0.000;0.000;2023-06-26T17:08:17;100533.44;;;24.63;59.60
62976;BME280;49071;0.000;0.000;2023-06-26T17:11:17;100524.56;;;24.63;59.47
62976;BME280;49071;0.000;0.000;2023-06-26T17:14:18;100507.66;;;24.62;59.56
62976;BME280;49071;0.000;0.000;2023-06-26T17:17:18;100501.34;;;24.63;59.27
62976;BME280;49071;0.000;0.000;2023-06-26T17:20:20;100514.59;;;24.65;59.81
62976;BME280;49071;0.000;0.000;2023-06-26T17:23:21;100518.97;;;24.66;60.42
62976;BME280;49071;0.000;0.000;2023-06-26T17:26:21;100525.06;;;24.68;60.32
62976;BME280;49071;0.000;0.000;2023-06-26T17:29:21;100521.41;;;24.69;60.92
62976;BME280;49071;0.000;0.000;2023-06-26T17:32:21;100538.31;;;24.70;60.73
62976;BME280;49071;0.000;0.000;2023-06-26T17:35:21;100536.50;;;24.70;60.66
62976;BME280;49071;0.000;0.000;2023-06-26T17:38:22;100537.22;;;24.72;60.76
62976;BME280;49071;0.000;0.000;2023-06-26T17:41:22;100542.56;;;24.72;60.59
62976;BME280;49071;0.000;0.000;2023-06-26T17:44:22;100553.38;;;24.71;60.41
62976;BME280;49071;0.000;0.000;2023-06-26T17:47:27;100554.09;;;24.73;60.37
62976;BME280;49071;0.000;0.000;2023-06-26T17:50:27;100574.44;;;24.75;60.39
62976;BME280;49071;0.000;0.000;2023-06-26T17:53:30;100581.50;;;24.76;60.30
62976;BME280;49071;0.000;0.000;2023-06-26T17:56:30;100600.94;;;24.78;59.75
62976;BME280;49071;0.000;0.000;2023-06-26T17:59:30;100623.47;;;24.76;60.52
62976;BME280;49071;0.000;0.000;2023-06-26T18:02:30;100663.22;;;24.80;59.92
62976;BME280;49071;0.000;0.000;2023-06-26T18:05:31;100697.06;;;24.81;60.10
62976;BME280;49071;0.000;0.000;2023-06-26T18:08:31;100658.00;;;24.79;60.23
62976;BME280;49071;0.000;0.000;2023-06-26T18:11:31;100621.28;;;24.81;60.02
62976;BME280;49071;0.000;0.000;2023-06-26T18:14:32;100590.72;;;24.83;59.74
62976;BME280;49071;0.000;0.000;2023-06-26T18:17:33;100597.66;;;24.86;60.06
62976;BME280;49071;0.000;0.000;2023-06-26T18:20:33;100602.03;;;24.87;59.49
62976;BME280;49071;0.000;0.000;2023-06-26T18:23:33;100603.00;;;24.86;60.41
62976;BME280;49071;0.000;0.000;2023-06-26T18:26:33;100597.66;;;24.86;59.99
62976;BME280;49071;0.000;0.000;2023-06-26T18:29:33;100608.22;;;24.87;59.78
62976;BME280;49071;0.000;0.000;2023-06-26T18:32:34;100604.72;;;24.87;60.70
62976;BME280;49071;0.000;0.000;2023-06-26T18:35:34;100613.50;;;24.89;59.83
62976;BME280;49071;0.000;0.000;2023-06-26T18:38:34;100627.59;;;24.91;60.51
62976;BME280;49071;0.000;0.000;2023-06-26T18:41:35;100631.38;;;24.88;60.51
62976;BME280;49071;0.000;0.000;2023-06-26T18:44:35;100617.75;;;24.91;59.73
62976;BME280;49071;0.000;0.000;2023-06-26T18:47:35;100606.78;;;24.94;59.59
62976;BME280;49071;0.000;0.000;2023-06-26T18:50:35;100635.38;;;24.94;60.25
62976;BME280;49071;0.000;0.000;2023-06-26T18:53:36;100653.03;;;24.97;59.55
62976;BME280;49071;0.000;0.000;2023-06-26T18:56:38;100649.59;;;24.94;60.12
62976;BME280;49071;0.000;0.000;2023-06-26T18:59:39;100652.19;;;24.96;59.89
62976;BME280;49071;0.000;0.000;2023-06-26T19:02:39;100667.41;;;24.96;59.59
62976;BME280;49071;0.000;0.000;2023-06-26T19:05:40;100669.22;;;24.95;60.35
62976;BME280;49071;0.000;0.000;2023-06-26T19:08:40;100667.41;;;24.96;60.45
62976;BME280;49071;0.000;0.000;2023-06-26T19:11:40;100671.63;;;24.98;59.44
62976;BME280;49071;0.000;0.000;2023-06-26T19:14:41;100661.66;;;25.00;59.34
62976;BME280;49071;0.000;0.000;2023-06-26T19:17:41;100655.56;;;24.98;59.59
62976;BME280;49071;0.000;0.000;2023-06-26T19:20:41;100649.00;;;24.91;60.36
62976;BME280;49071;0.000;0.000;2023-06-26T19:23:41;100663.88;;;24.95;60.13
62976;BME280;49071;0.000;0.000;2023-06-26T19:26:42;100663.00;;;24.94;60.32
62976;BME280;49071;0.000;0.000;2023-06-26T19:29:42;100652.41;;;24.93;60.34
62976;BME280;49071;0.000;0.000;2023-06-26T19:32:42;100649.00;;;24.91;60.24
62976;BME280;49071;0.000;0.000;2023-06-26T19:35:42;100656.69;;;24.96;59.70
62976;BME280;49071;0.000;0.000;2023-06-26T19:38:42;100665.66;;;24.94;59.91
62976;BME280;49071;0.000;0.000;2023-06-26T19:41:43;100671.63;;;24.98;59.39
62976;BME280;49071;0.000;0.000;2023-06-26T19:44:43;100669.81;;;24.99;59.38
62976;BME280;49071;0.000;0.000;2023-06-26T19:47:43;100671.00;;;24.94;59.68
62976;BME280;49071;0.000;0.000;2023-06-26T19:50:43;100674.44;;;24.97;59.49
62976;BME280;49071;0.000;0.000;2023-06-26T19:53:45;100686.97;;;24.96;59.37
62976;BME280;49071;0.000;0.000;2023-06-26T19:56:46;100692.09;;;24.99;59.08
62976;BME280;49071;0.000;0.000;2023-06-26T19:59:46;100678.69;;;24.99;59.14
62976;BME280;49071;0.000;0.000;2023-06-26T20:02:47;100666.41;;;24.97;59.27
62976;BME280;49071;0.000;0.000;2023-06-26T20:05:47;100664.47;;;24.99;58.93
62976;BME280;49071;0.000;0.000;2023-06-26T20:08:48;100667.97;;;24.99;58.84
62976;BME280;49071;0.000;0.000;2023-06-26T20:11:49;100665.31;;;24.99;59.15